createdAt,value
2019-06-01T00:00:56.035Z,12.8
2019-06-01T00:02:03.243Z,12.8
2019-06-01T00:03:10.454Z,12.8
2019-06-01T00:04:17.783Z,12.8
2019-06-01T00:05:25.003Z,12.8
2019-06-01T00:06:31.922Z,12.7
2019-06-01T00:07:39.246Z,12.8
2019-06-01T00:08:47.732Z,12.7
2019-06-01T00:09:56.080Z,12.7
2019-06-01T00:11:03.295Z,12.7
2019-06-01T00:12:10.526Z,12.7
2019-06-01T00:13:17.732Z,12.7
2019-06-01T00:14:24.986Z,12.7
2019-06-01T00:15:32.193Z,12.7
2019-06-01T00:16:41.629Z,12.7
2019-06-01T00:17:52.232Z,12.7
2019-06-01T00:18:59.169Z,12.7
2019-06-01T00:20:06.379Z,12.7
2019-06-01T00:21:13.587Z,12.6
2019-06-01T00:22:20.791Z,12.6
2019-06-01T00:23:27.760Z,12.6
2019-06-01T00:24:34.952Z,12.6
2019-06-01T00:25:43.122Z,12.6
2019-06-01T00:26:52.606Z,12.6
2019-06-01T00:27:59.805Z,12.5
2019-06-01T00:29:07.010Z,12.6
2019-06-01T00:30:27.623Z,12.5
2019-06-01T00:31:34.853Z,12.5
2019-06-01T00:32:42.981Z,12.5
2019-06-01T00:33:52.263Z,12.5
2019-06-01T00:34:59.469Z,12.4
2019-06-01T00:36:06.676Z,12.4
2019-06-01T00:37:13.630Z,12.4
2019-06-01T00:38:20.836Z,12.4
2019-06-01T00:39:28.059Z,12.4
2019-06-01T00:40:34.993Z,12.4
2019-06-01T00:41:42.445Z,12.4
2019-06-01T00:42:50.777Z,12.3
2019-06-01T00:43:58.983Z,12.3
2019-06-01T00:45:06.187Z,12.3
2019-06-01T00:46:13.392Z,12.3
2019-06-01T00:47:20.325Z,12.3
2019-06-01T00:48:27.543Z,12.3
2019-06-01T00:49:34.754Z,12.3
2019-06-01T00:50:44.809Z,12.4
2019-06-01T00:51:54.295Z,12.3
2019-06-01T00:53:01.498Z,12.3
2019-06-01T00:54:08.446Z,12.3
2019-06-01T00:55:15.651Z,12.2
2019-06-01T00:56:22.310Z,12.2
2019-06-01T00:57:29.260Z,12.2
2019-06-01T00:58:36.463Z,12.2
2019-06-01T00:59:44.184Z,12.2
2019-06-01T01:00:55.215Z,12.2
2019-06-01T01:02:02.517Z,12.1
2019-06-01T01:03:09.452Z,12.2
2019-06-01T01:04:16.660Z,12.2
2019-06-01T01:05:23.878Z,12.2
2019-06-01T01:06:31.076Z,12.2
2019-06-01T01:07:38.870Z,12.1
2019-06-01T01:08:48.971Z,12.1
2019-06-01T01:09:57.345Z,12.1
2019-06-01T01:11:04.564Z,12.1
2019-06-01T01:12:11.773Z,12
2019-06-01T01:13:18.983Z,12
2019-06-01T01:14:25.905Z,12
2019-06-01T01:15:33.111Z,12
2019-06-01T01:16:40.310Z,12
2019-06-01T01:17:48.336Z,12
2019-06-01T01:18:56.552Z,11.9
2019-06-01T01:20:03.764Z,12
2019-06-01T01:21:10.970Z,11.9
2019-06-01T01:22:17.908Z,11.9
2019-06-01T01:23:25.114Z,11.9
2019-06-01T01:24:32.042Z,11.9
2019-06-01T01:25:39.347Z,11.9
2019-06-01T01:26:46.909Z,11.9
2019-06-01T01:27:55.357Z,11.9
2019-06-01T01:29:03.837Z,11.9
2019-06-01T01:30:10.764Z,11.9
2019-06-01T01:31:18.186Z,11.9
2019-06-01T01:32:25.141Z,11.9
2019-06-01T01:33:32.347Z,11.9
2019-06-01T01:34:39.554Z,11.9
2019-06-01T01:35:47.511Z,11.8
2019-06-01T01:36:56.580Z,11.9
2019-06-01T01:38:04.869Z,11.8
2019-06-01T01:39:12.076Z,11.8
2019-06-01T01:40:19.276Z,11.8
2019-06-01T01:41:26.205Z,11.8
2019-06-01T01:42:33.431Z,11.8
2019-06-01T01:43:40.363Z,11.7
2019-06-01T01:44:48.837Z,11.7
2019-06-01T01:45:57.411Z,11.7
2019-06-01T01:47:05.768Z,11.7
2019-06-01T01:48:12.975Z,11.7
2019-06-01T01:49:20.188Z,11.7
2019-06-01T01:50:27.388Z,11.7
2019-06-01T01:51:34.590Z,11.7
2019-06-01T01:52:41.801Z,11.7
2019-06-01T01:53:49.007Z,11.6
2019-06-01T01:54:57.323Z,11.6
2019-06-01T01:56:05.642Z,11.6
2019-06-01T01:57:12.569Z,11.6
2019-06-01T01:58:19.502Z,11.6
2019-06-01T01:59:26.429Z,11.6
2019-06-01T02:00:33.630Z,11.5
2019-06-01T02:01:40.836Z,11.5
2019-06-01T02:02:48.044Z,11.5
2019-06-01T02:03:57.353Z,11.5
2019-06-01T02:05:05.849Z,11.5
2019-06-01T02:06:13.049Z,11.4
2019-06-01T02:07:20.258Z,11.5
2019-06-01T02:08:27.482Z,11.5
2019-06-01T02:09:34.679Z,11.4
2019-06-01T02:10:41.875Z,11.4
2019-06-01T02:11:49.077Z,11.4
2019-06-01T02:12:58.028Z,11.4
2019-06-01T02:14:06.416Z,11.4
2019-06-01T02:15:13.610Z,11.4
2019-06-01T02:16:20.815Z,11.4
2019-06-01T02:17:28.020Z,11.3
2019-06-01T02:18:35.248Z,11.3
2019-06-01T02:19:42.176Z,11.3
2019-06-01T02:20:49.105Z,11.3
2019-06-01T02:21:56.948Z,11.3
2019-06-01T02:23:04.981Z,11.3
2019-06-01T02:24:12.189Z,11.3
2019-06-01T02:25:19.390Z,11.3
2019-06-01T02:26:26.599Z,11.3
2019-06-01T02:27:33.800Z,11.3
2019-06-01T02:28:40.736Z,11.3
2019-06-01T02:29:47.941Z,11.3
2019-06-01T02:30:57.902Z,11.3
2019-06-01T02:32:08.350Z,11.3
2019-06-01T02:33:15.558Z,11.3
2019-06-01T02:34:22.764Z,11.2
2019-06-01T02:35:29.421Z,11.2
2019-06-01T02:36:36.647Z,11.2
2019-06-01T02:37:43.856Z,11.2
2019-06-01T02:38:51.065Z,11.2
2019-06-01T02:40:00.793Z,11.2
2019-06-01T02:41:11.832Z,11.2
2019-06-01T02:42:18.763Z,11.2
2019-06-01T02:43:25.722Z,11.2
2019-06-01T02:44:32.927Z,11.1
2019-06-01T02:45:40.169Z,11.2
2019-06-01T02:46:47.376Z,11.1
2019-06-01T02:47:55.335Z,11.1
2019-06-01T02:49:06.778Z,11.1
2019-06-01T02:50:13.714Z,11.1
2019-06-01T02:51:20.642Z,11.1
2019-06-01T02:52:27.853Z,11.1
2019-06-01T02:53:35.057Z,11.1
2019-06-01T02:54:42.253Z,11
2019-06-01T02:55:49.457Z,11
2019-06-01T02:56:57.799Z,11
2019-06-01T02:58:07.255Z,11
2019-06-01T02:59:14.453Z,11
2019-06-01T03:00:21.115Z,11
2019-06-01T03:01:28.322Z,11
2019-06-01T03:02:35.534Z,11
2019-06-01T03:03:42.738Z,11
2019-06-01T03:04:49.944Z,11
2019-06-01T03:05:59.108Z,11
2019-06-01T03:07:09.203Z,11
2019-06-01T03:08:16.407Z,10.9
2019-06-01T03:09:23.615Z,10.9
2019-06-01T03:10:30.818Z,10.9
2019-06-01T03:11:38.022Z,10.8
2019-06-01T03:12:44.957Z,10.8
2019-06-01T03:13:51.888Z,10.8
2019-06-01T03:15:00.171Z,10.8
2019-06-01T03:16:09.420Z,10.8
2019-06-01T03:17:16.619Z,10.8
2019-06-01T03:18:23.568Z,10.8
2019-06-01T03:19:30.769Z,10.8
2019-06-01T03:20:37.981Z,10.8
2019-06-01T03:21:44.916Z,10.8
2019-06-01T03:22:52.127Z,10.8
2019-06-01T03:24:00.197Z,10.8
2019-06-01T03:25:08.603Z,10.8
2019-06-01T03:26:15.532Z,10.8
2019-06-01T03:27:22.738Z,10.8
2019-06-01T03:28:29.940Z,10.8
2019-06-01T03:29:36.918Z,10.8
2019-06-01T03:30:46.285Z,10.8
2019-06-01T03:31:53.212Z,10.8
2019-06-01T03:33:03.415Z,10.8
2019-06-01T03:34:16.828Z,10.7
2019-06-01T03:35:24.022Z,10.7
2019-06-01T03:36:30.961Z,10.7
2019-06-01T03:37:38.163Z,10.8
2019-06-01T03:38:45.370Z,10.7
2019-06-01T03:39:52.625Z,10.8
2019-06-01T03:41:00.467Z,10.8
2019-06-01T03:42:09.977Z,10.8
2019-06-01T03:43:18.469Z,10.8
2019-06-01T03:44:25.407Z,10.7
2019-06-01T03:45:32.596Z,10.7
2019-06-01T03:46:39.801Z,10.7
2019-06-01T03:47:47.018Z,10.7
2019-06-01T03:48:54.237Z,10.8
2019-06-01T03:50:02.881Z,10.8
2019-06-01T03:51:12.498Z,10.7
2019-06-01T03:52:19.438Z,10.8
2019-06-01T03:53:26.654Z,10.8
2019-06-01T03:54:33.857Z,10.7
2019-06-01T03:55:41.072Z,10.8
2019-06-01T03:56:48.275Z,10.8
2019-06-01T03:57:55.480Z,10.8
2019-06-01T03:59:03.596Z,10.8
2019-06-01T04:00:12.573Z,10.8
2019-06-01T04:01:19.515Z,10.8
2019-06-01T04:02:33.830Z,10.8
2019-06-01T04:03:40.814Z,10.9
2019-06-01T04:04:48.030Z,10.9
2019-06-01T04:05:55.235Z,10.8
2019-06-01T04:07:03.882Z,10.8
2019-06-01T04:08:12.356Z,10.9
2019-06-01T04:09:19.561Z,10.9
2019-06-01T04:10:26.777Z,10.9
2019-06-01T04:11:33.976Z,10.9
2019-06-01T04:12:40.932Z,10.9
2019-06-01T04:13:47.865Z,10.9
2019-06-01T04:14:54.790Z,10.9
2019-06-01T04:16:02.294Z,11
2019-06-01T04:17:12.144Z,11
2019-06-01T04:18:19.404Z,11.1
2019-06-01T04:19:26.610Z,11.1
2019-06-01T04:20:33.546Z,11.1
2019-06-01T04:21:40.757Z,11.1
2019-06-01T04:22:47.961Z,11.1
2019-06-01T04:23:54.895Z,11.1
2019-06-01T04:25:03.918Z,11.1
2019-06-01T04:26:12.212Z,11.1
2019-06-01T04:27:19.490Z,11.2
2019-06-01T04:28:26.692Z,11.2
2019-06-01T04:29:33.897Z,11.2
2019-06-01T04:30:41.104Z,11.3
2019-06-01T04:31:48.310Z,11.3
2019-06-01T04:32:55.525Z,11.3
2019-06-01T04:34:02.991Z,11.4
2019-06-01T04:35:11.646Z,11.4
2019-06-01T04:36:20.049Z,11.4
2019-06-01T04:37:27.257Z,11.4
2019-06-01T04:38:34.250Z,11.4
2019-06-01T04:39:41.162Z,11.5
2019-06-01T04:40:48.094Z,11.5
2019-06-01T04:41:55.030Z,11.6
2019-06-01T04:43:02.232Z,11.6
2019-06-01T04:44:10.621Z,11.7
2019-06-01T04:45:18.954Z,11.7
2019-06-01T04:46:26.163Z,11.7
2019-06-01T04:47:33.365Z,11.8
2019-06-01T04:48:40.567Z,11.8
2019-06-01T04:49:47.768Z,11.8
2019-06-01T04:50:54.972Z,11.9
2019-06-01T04:52:02.181Z,11.9
2019-06-01T04:53:09.363Z,12
2019-06-01T04:54:19.757Z,12
2019-06-01T04:55:26.967Z,12.1
2019-06-01T04:56:33.903Z,12.1
2019-06-01T04:57:41.109Z,12.2
2019-06-01T04:58:48.051Z,12.2
2019-06-01T04:59:54.989Z,12.2
2019-06-01T05:01:02.227Z,12.3
2019-06-01T05:02:11.478Z,12.3
2019-06-01T05:03:19.923Z,12.3
2019-06-01T05:04:27.124Z,12.4
2019-06-01T05:05:34.338Z,12.4
2019-06-01T05:06:41.539Z,12.5
2019-06-01T05:07:48.763Z,12.6
2019-06-01T05:08:55.959Z,12.6
2019-06-01T05:10:03.173Z,12.6
2019-06-01T05:11:11.817Z,12.7
2019-06-01T05:12:20.273Z,12.8
2019-06-01T05:13:27.479Z,12.8
2019-06-01T05:14:34.420Z,12.8
2019-06-01T05:15:41.354Z,12.9
2019-06-01T05:16:48.557Z,13
2019-06-01T05:17:55.758Z,13
2019-06-01T05:19:02.962Z,13.1
2019-06-01T05:20:12.427Z,13.2
2019-06-01T05:21:21.286Z,13.3
2019-06-01T05:22:28.495Z,13.4
2019-06-01T05:23:35.428Z,13.5
2019-06-01T05:24:42.361Z,13.7
2019-06-01T05:25:49.561Z,13.8
2019-06-01T05:27:00.063Z,14
2019-06-01T05:28:07.555Z,14.1
2019-06-01T05:29:17.789Z,14.3
2019-06-01T05:30:24.941Z,14.5
2019-06-01T05:31:32.149Z,14.7
2019-06-01T05:32:39.358Z,14.9
2019-06-01T05:33:46.556Z,15.2
2019-06-01T05:34:53.485Z,15.4
2019-06-01T05:36:00.701Z,15.6
2019-06-01T05:37:10.724Z,15.8
2019-06-01T05:38:20.482Z,16
2019-06-01T05:39:27.693Z,16.2
2019-06-01T05:40:35.504Z,16.4
2019-06-01T05:41:42.437Z,16.6
2019-06-01T05:42:49.638Z,16.7
2019-06-01T05:43:56.864Z,16.8
2019-06-01T05:45:04.069Z,17
2019-06-01T05:46:12.291Z,17.1
2019-06-01T05:47:20.734Z,17.2
2019-06-01T05:48:31.300Z,17.4
2019-06-01T05:49:38.232Z,17.5
2019-06-01T05:50:45.449Z,17.6
2019-06-01T05:51:52.651Z,17.6
2019-06-01T05:52:59.581Z,17.7
2019-06-01T05:54:06.786Z,17.7
2019-06-01T05:55:15.126Z,17.9
2019-06-01T05:56:23.524Z,18
2019-06-01T05:57:30.739Z,18.2
2019-06-01T05:58:37.950Z,18.3
2019-06-01T05:59:45.155Z,18.2
2019-06-01T06:00:52.368Z,18.2
2019-06-01T06:01:59.576Z,18.2
2019-06-01T06:03:06.793Z,18.3
2019-06-01T06:04:14.006Z,18.5
2019-06-01T06:05:23.339Z,18.7
2019-06-01T06:06:30.281Z,18.9
2019-06-01T06:07:37.491Z,19
2019-06-01T06:08:44.696Z,19.1
2019-06-01T06:09:51.626Z,19.1
2019-06-01T06:10:58.288Z,19.1
2019-06-01T06:12:05.511Z,19.2
2019-06-01T06:13:15.181Z,19.3
2019-06-01T06:14:23.718Z,19.4
2019-06-01T06:15:30.648Z,19.5
2019-06-01T06:16:37.306Z,19.6
2019-06-01T06:17:44.514Z,19.7
2019-06-01T06:18:51.751Z,19.8
2019-06-01T06:19:58.996Z,19.8
2019-06-01T06:21:05.945Z,19.8
2019-06-01T06:22:14.128Z,20
2019-06-01T06:23:23.276Z,20.2
2019-06-01T06:24:30.492Z,20.3
2019-06-01T06:25:41.598Z,20.3
2019-06-01T06:26:48.555Z,20.4
2019-06-01T06:27:55.219Z,20.6
2019-06-01T06:29:02.151Z,20.7
2019-06-01T06:30:09.360Z,20.7
2019-06-01T06:31:17.199Z,20.7
2019-06-01T06:32:25.445Z,20.7
2019-06-01T06:33:32.655Z,20.9
2019-06-01T06:34:43.175Z,21.1
2019-06-01T06:35:50.386Z,21.1
2019-06-01T06:36:57.597Z,21.1
2019-06-01T06:38:04.801Z,21.3
2019-06-01T06:39:12.013Z,21.4
2019-06-01T06:40:20.675Z,21.4
2019-06-01T06:41:28.899Z,21.5
2019-06-01T06:42:36.113Z,21.6
2019-06-01T06:43:43.326Z,21.5
2019-06-01T06:44:50.542Z,21.6
2019-06-01T06:45:57.747Z,21.7
2019-06-01T06:47:04.692Z,21.5
2019-06-01T06:48:11.899Z,21.6
2019-06-01T06:49:19.681Z,21.8
2019-06-01T06:50:28.122Z,22
2019-06-01T06:51:35.334Z,22
2019-06-01T06:52:42.555Z,22
2019-06-01T06:53:49.759Z,22.2
2019-06-01T06:54:56.964Z,22.4
2019-06-01T06:56:04.172Z,22.6
2019-06-01T06:57:11.379Z,22.7
2019-06-01T06:58:20.875Z,22.7
2019-06-01T06:59:30.679Z,22.6
2019-06-01T07:00:37.892Z,22.7
2019-06-01T07:01:44.838Z,22.8
2019-06-01T07:02:52.100Z,23
2019-06-01T07:04:13.259Z,23
2019-06-01T07:05:21.776Z,22.9
2019-06-01T07:06:29.795Z,23.1
2019-06-01T07:07:36.740Z,23.1
2019-06-01T07:08:43.666Z,23.3
2019-06-01T07:09:50.872Z,23.3
2019-06-01T07:10:58.100Z,23.6
2019-06-01T07:12:05.312Z,23.7
2019-06-01T07:13:12.522Z,23.7
2019-06-01T07:14:19.841Z,23.7
2019-06-01T07:15:28.147Z,23.9
2019-06-01T07:16:35.359Z,24.1
2019-06-01T07:17:42.585Z,24.3
2019-06-01T07:18:49.792Z,24.5
2019-06-01T07:19:57.011Z,24.4
2019-06-01T07:21:04.231Z,24.3
2019-06-01T07:22:11.443Z,24.3
2019-06-01T07:23:19.526Z,24.3
2019-06-01T07:24:28.673Z,24.3
2019-06-01T07:25:35.939Z,24.4
2019-06-01T07:26:43.204Z,24.2
2019-06-01T07:27:50.483Z,23.9
2019-06-01T07:28:57.694Z,23.8
2019-06-01T07:30:04.942Z,23.8
2019-06-01T07:31:12.167Z,24.1
2019-06-01T07:32:20.662Z,24.3
2019-06-01T07:33:29.104Z,24.5
2019-06-01T07:34:42.958Z,24.3
2019-06-01T07:35:50.277Z,24.5
2019-06-01T07:36:57.521Z,24.5
2019-06-01T07:38:04.811Z,24.5
2019-06-01T07:39:11.803Z,24.7
2019-06-01T07:40:18.752Z,24.9
2019-06-01T07:41:29.392Z,24.9
2019-06-01T07:42:36.594Z,24.9
2019-06-01T07:43:43.550Z,25
2019-06-01T07:44:50.764Z,25.1
2019-06-01T07:45:57.996Z,25.1
2019-06-01T07:47:05.354Z,25.2
2019-06-01T07:48:12.299Z,25
2019-06-01T07:49:20.910Z,25.1
2019-06-01T07:50:29.549Z,25.1
2019-06-01T07:51:36.754Z,25.2
2019-06-01T07:52:43.963Z,25.5
2019-06-01T07:53:51.180Z,25.7
2019-06-01T07:54:58.405Z,26
2019-06-01T07:56:05.621Z,26.2
2019-06-01T07:57:12.559Z,26.1
2019-06-01T07:58:22.205Z,25.9
2019-06-01T07:59:32.481Z,25.9
2019-06-01T08:00:39.840Z,25.8
2019-06-01T08:01:47.086Z,25.6
2019-06-01T08:02:54.297Z,25.5
2019-06-01T08:04:01.235Z,25.7
2019-06-01T08:05:08.203Z,26
2019-06-01T08:06:15.500Z,26.2
2019-06-01T08:07:26.116Z,26.4
2019-06-01T08:08:35.576Z,26.3
2019-06-01T08:09:42.551Z,26.3
2019-06-01T08:10:49.768Z,26.3
2019-06-01T08:11:56.708Z,26.4
2019-06-01T08:13:03.922Z,26.6
2019-06-01T08:14:11.145Z,26.5
2019-06-01T08:15:18.356Z,26.5
2019-06-01T08:16:27.515Z,26.6
2019-06-01T08:17:36.233Z,26.9
2019-06-01T08:18:43.447Z,27
2019-06-01T08:19:52.426Z,27.1
2019-06-01T08:20:59.645Z,27.3
2019-06-01T08:22:06.938Z,27.4
2019-06-01T08:23:14.376Z,27.5
2019-06-01T08:24:22.633Z,27.5
2019-06-01T08:25:32.680Z,27.5
2019-06-01T08:26:39.663Z,27.7
2019-06-01T08:27:46.610Z,27.8
2019-06-01T08:28:53.820Z,27.8
2019-06-01T08:30:01.033Z,27.8
2019-06-01T08:31:08.252Z,27.8
2019-06-01T08:32:15.470Z,27.7
2019-06-01T08:33:31.515Z,27.7
2019-06-01T08:34:41.737Z,27.5
2019-06-01T08:35:48.945Z,27.3
2019-06-01T08:36:56.007Z,27.1
2019-06-01T08:38:03.213Z,27
2019-06-01T08:39:10.433Z,27.3
2019-06-01T08:40:17.650Z,27.6
2019-06-01T08:41:27.309Z,27.8
2019-06-01T08:42:36.164Z,27.9
2019-06-01T08:43:43.436Z,28.1
2019-06-01T08:44:50.381Z,27.8
2019-06-01T08:45:57.613Z,27.9
2019-06-01T08:47:04.561Z,27.7
2019-06-01T08:48:11.771Z,27.7
2019-06-01T08:49:18.984Z,27.8
2019-06-01T08:50:26.232Z,28
2019-06-01T08:51:34.774Z,28.2
2019-06-01T08:52:42.000Z,28.3
2019-06-01T08:53:48.929Z,28.2
2019-06-01T08:54:56.157Z,28.1
2019-06-01T08:56:03.367Z,28
2019-06-01T08:57:10.613Z,28
2019-06-01T08:58:17.823Z,27.8
2019-06-01T08:59:26.164Z,27.8
2019-06-01T09:00:35.272Z,28.1
2019-06-01T09:01:42.477Z,28.1
2019-06-01T09:02:49.686Z,28.2
2019-06-01T09:03:56.901Z,28.3
2019-06-01T09:05:04.112Z,28.4
2019-06-01T09:06:11.326Z,28.4
2019-06-01T09:07:18.617Z,28.6
2019-06-01T09:08:27.091Z,28.7
2019-06-01T09:09:35.778Z,28.9
2019-06-01T09:10:42.722Z,29.2
2019-06-01T09:11:49.936Z,29.3
2019-06-01T09:12:57.155Z,29.3
2019-06-01T09:14:04.365Z,29.2
2019-06-01T09:15:11.597Z,28.8
2019-06-01T09:16:19.406Z,28.9
2019-06-01T09:17:27.868Z,29
2019-06-01T09:18:36.427Z,29.1
2019-06-01T09:19:43.373Z,29.4
2019-06-01T09:20:50.584Z,29.6
2019-06-01T09:21:57.552Z,29.5
2019-06-01T09:23:04.769Z,28.9
2019-06-01T09:24:11.776Z,29
2019-06-01T09:25:19.014Z,29.1
2019-06-01T09:26:27.726Z,29
2019-06-01T09:27:36.688Z,29.1
2019-06-01T09:28:43.903Z,29
2019-06-01T09:29:51.119Z,29
2019-06-01T09:30:58.330Z,29
2019-06-01T09:32:09.596Z,29.3
2019-06-01T09:33:18.263Z,29.4
2019-06-01T09:34:26.728Z,29.2
2019-06-01T09:35:55.709Z,29
2019-06-01T09:37:03.465Z,29.3
2019-06-01T09:38:10.693Z,29.6
2019-06-01T09:39:17.629Z,29.4
2019-06-01T09:40:24.866Z,29.2
2019-06-01T09:41:37.674Z,29
2019-06-01T09:42:44.902Z,28.6
2019-06-01T09:43:51.862Z,28.5
2019-06-01T09:44:59.075Z,29
2019-06-01T09:46:06.287Z,29.3
2019-06-01T09:47:13.526Z,29.2
2019-06-01T09:48:20.735Z,29.2
2019-06-01T09:49:29.063Z,29.3
2019-06-01T09:50:38.856Z,29.4
2019-06-01T09:51:46.071Z,29.6
2019-06-01T09:52:53.286Z,29.6
2019-06-01T09:54:00.502Z,29.6
2019-06-01T09:55:07.520Z,29.8
2019-06-01T09:56:14.765Z,30.1
2019-06-01T09:57:21.985Z,30.2
2019-06-01T09:58:30.626Z,30.3
2019-06-01T09:59:39.049Z,30.3
2019-06-01T10:00:46.254Z,30.7
2019-06-01T10:01:53.465Z,30.7
2019-06-01T10:03:00.688Z,30.7
2019-06-01T10:04:07.901Z,30.7
2019-06-01T10:05:30.273Z,30.3
2019-06-01T10:06:39.242Z,30
2019-06-01T10:07:46.459Z,29.8
2019-06-01T10:08:53.411Z,29.6
2019-06-01T10:10:00.630Z,29.6
2019-06-01T10:11:07.843Z,30
2019-06-01T10:12:15.056Z,30.1
2019-06-01T10:13:22.272Z,30
2019-06-01T10:14:30.555Z,30.3
2019-06-01T10:15:39.046Z,30.1
2019-06-01T10:16:46.256Z,29.9
2019-06-01T10:17:53.465Z,30
2019-06-01T10:19:00.701Z,30.1
2019-06-01T10:20:08.003Z,30.2
2019-06-01T10:21:15.213Z,30.2
2019-06-01T10:22:22.432Z,30.2
2019-06-01T10:23:32.214Z,29.8
2019-06-01T10:24:42.780Z,29.8
2019-06-01T10:25:49.991Z,29.5
2019-06-01T10:26:57.207Z,29.6
2019-06-01T10:28:04.148Z,29.9
2019-06-01T10:29:11.486Z,30.2
2019-06-01T10:30:18.720Z,30.3
2019-06-01T10:31:25.673Z,30
2019-06-01T10:32:35.693Z,29.4
2019-06-01T10:33:44.421Z,28.9
2019-06-01T10:34:51.637Z,28.5
2019-06-01T10:35:58.855Z,28.4
2019-06-01T10:37:06.071Z,28.3
2019-06-01T10:38:13.279Z,28.3
2019-06-01T10:39:20.512Z,28.4
2019-06-01T10:40:27.736Z,28.9
2019-06-01T10:41:35.844Z,29.4
2019-06-01T10:42:44.203Z,29.3
2019-06-01T10:43:51.151Z,29.4
2019-06-01T10:44:58.083Z,29.9
2019-06-01T10:46:05.085Z,30.2
2019-06-01T10:47:12.305Z,30
2019-06-01T10:48:19.528Z,30.1
2019-06-01T10:49:26.757Z,30.1
2019-06-01T10:50:36.622Z,30.4
2019-06-01T10:51:46.859Z,30.4
2019-06-01T10:52:54.073Z,30.3
2019-06-01T10:54:01.298Z,30.4
2019-06-01T10:55:08.238Z,30.5
2019-06-01T10:56:15.454Z,30.7
2019-06-01T10:57:22.672Z,30.7
2019-06-01T10:58:29.901Z,30.9
2019-06-01T10:59:38.676Z,31.2
2019-06-01T11:00:51.878Z,31.4
2019-06-01T11:01:59.162Z,31.7
2019-06-01T11:03:06.520Z,31.8
2019-06-01T11:04:13.732Z,31.6
2019-06-01T11:05:20.950Z,31.4
2019-06-01T11:06:46.382Z,31.3
2019-06-01T11:07:55.802Z,31.5
2019-06-01T11:09:02.509Z,31.4
2019-06-01T11:10:09.729Z,31.3
2019-06-01T11:11:17.200Z,31.2
2019-06-01T11:12:23.875Z,31.1
2019-06-01T11:13:31.093Z,30.8
2019-06-01T11:14:43.223Z,30.7
2019-06-01T11:15:50.567Z,31
2019-06-01T11:16:57.509Z,31.2
2019-06-01T11:18:04.734Z,30.9
2019-06-01T11:19:11.960Z,30.4
2019-06-01T11:20:18.626Z,30.4
2019-06-01T11:21:25.575Z,30.3
2019-06-01T11:22:33.904Z,30.7
2019-06-01T11:23:46.848Z,30.9
2019-06-01T11:24:53.785Z,30.7
2019-06-01T11:26:00.732Z,30.4
2019-06-01T11:27:07.680Z,30.6
2019-06-01T11:28:14.902Z,31.1
2019-06-01T11:29:22.147Z,31.4
2019-06-01T11:30:29.393Z,31.4
2019-06-01T11:32:46.479Z,31.7
2019-06-01T11:33:53.696Z,31.9
2019-06-01T11:35:00.922Z,32
2019-06-01T11:36:08.142Z,31.9
2019-06-01T11:37:16.352Z,31.7
2019-06-01T11:38:23.571Z,31.9
2019-06-01T11:39:30.803Z,32.2
2019-06-01T11:40:40.677Z,32.5
2019-06-01T11:41:51.072Z,32.7
2019-06-01T11:42:58.023Z,33
2019-06-01T11:44:05.281Z,32.9
2019-06-01T11:45:12.241Z,32.6
2019-06-01T11:46:19.458Z,32.9
2019-06-01T11:47:26.698Z,32.7
2019-06-01T11:48:37.018Z,32.5
2019-06-01T11:49:47.657Z,32.2
2019-06-01T11:50:54.598Z,32.3
2019-06-01T11:52:01.830Z,31.9
2019-06-01T11:53:09.049Z,32
2019-06-01T11:54:16.266Z,31.9
2019-06-01T11:55:23.484Z,31.9
2019-06-01T11:56:30.428Z,32.1
2019-06-01T11:57:39.321Z,31.9
2019-06-01T11:58:47.901Z,31.5
2019-06-01T11:59:54.845Z,31.9
2019-06-01T12:01:01.806Z,32.1
2019-06-01T12:02:09.028Z,31.9
2019-06-01T12:03:16.248Z,31.6
2019-06-01T12:04:23.475Z,31.4
2019-06-01T12:05:30.694Z,31.1
2019-06-01T12:06:38.296Z,30.9
2019-06-01T12:07:46.695Z,30.9
2019-06-01T12:08:53.917Z,31.4
2019-06-01T12:10:01.131Z,31.9
2019-06-01T12:11:08.386Z,32.3
2019-06-01T12:12:15.593Z,32.2
2019-06-01T12:13:22.813Z,32.2
2019-06-01T12:14:30.030Z,32.3
2019-06-01T12:15:39.092Z,32.5
2019-06-01T12:16:48.523Z,32.7
2019-06-01T12:17:55.739Z,33
2019-06-01T12:19:02.955Z,32.7
2019-06-01T12:20:10.183Z,32.7
2019-06-01T12:21:17.399Z,32.9
2019-06-01T12:22:24.619Z,33.1
2019-06-01T12:23:31.564Z,33.5
2019-06-01T12:24:39.325Z,33.7
2019-06-01T12:25:48.445Z,33.9
2019-06-01T12:26:55.699Z,33.8
2019-06-01T12:28:02.920Z,33.4
2019-06-01T12:29:10.154Z,33.4
2019-06-01T12:30:17.447Z,33.6
2019-06-01T12:31:24.732Z,33.4
2019-06-01T12:32:31.704Z,32.9
2019-06-01T12:33:40.328Z,32.2
2019-06-01T12:34:49.095Z,31.4
2019-06-01T12:35:56.327Z,31
2019-06-01T12:37:03.553Z,31
2019-06-01T12:38:10.768Z,31.3
2019-06-01T12:39:17.720Z,31.6
2019-06-01T12:40:24.666Z,31.3
2019-06-01T12:41:31.895Z,31.4
2019-06-01T12:42:41.470Z,31.4
2019-06-01T12:43:50.428Z,31.1
2019-06-01T12:44:58.632Z,31.4
2019-06-01T12:46:08.326Z,31.5
2019-06-01T12:47:14.992Z,31.8
2019-06-01T12:48:22.218Z,31.6
2019-06-01T12:49:29.438Z,31.9
2019-06-01T12:50:36.656Z,31.9
2019-06-01T12:51:46.697Z,31.6
2019-06-01T12:52:55.668Z,31.9
2019-06-01T12:54:02.888Z,32.2
2019-06-01T12:55:10.110Z,32.3
2019-06-01T12:56:17.331Z,32.6
2019-06-01T12:57:24.552Z,32.8
2019-06-01T12:58:31.773Z,33.2
2019-06-01T12:59:39.045Z,33.5
2019-06-01T13:00:49.079Z,33.3
2019-06-01T13:01:56.296Z,33.4
2019-06-01T13:03:08.265Z,33.4
2019-06-01T13:04:15.475Z,33
2019-06-01T13:05:22.696Z,33
2019-06-01T13:06:29.934Z,33.3
2019-06-01T13:08:01.637Z,33.7
2019-06-01T13:09:09.657Z,34
2019-06-01T13:10:16.874Z,34
2019-06-01T13:11:24.093Z,34.3
2019-06-01T13:12:31.074Z,34.4
2019-06-01T13:13:38.318Z,34.5
2019-06-01T13:14:45.690Z,34.7
2019-06-01T13:15:53.748Z,34.7
2019-06-01T13:17:08.066Z,34.4
2019-06-01T13:18:15.278Z,34.5
2019-06-01T13:19:25.286Z,34.4
2019-06-01T13:20:32.503Z,34.1
2019-06-01T13:21:39.724Z,33.9
2019-06-01T13:22:51.827Z,34.2
2019-06-01T13:23:59.148Z,34.4
2019-06-01T13:25:06.377Z,34.5
2019-06-01T13:26:13.324Z,34.6
2019-06-01T13:27:20.547Z,34.5
2019-06-01T13:28:38.525Z,34.5
2019-06-01T13:29:46.312Z,34.7
2019-06-01T13:30:54.720Z,35
2019-06-01T13:32:01.939Z,35.1
2019-06-01T13:33:08.894Z,35
2019-06-01T13:34:16.128Z,34.8
2019-06-01T13:35:23.358Z,34.9
2019-06-01T13:36:30.299Z,34.5
2019-06-01T13:37:37.252Z,34.4
2019-06-01T13:38:44.729Z,34.7
2019-06-01T13:39:58.587Z,34.7
2019-06-01T13:41:05.804Z,34.6
2019-06-01T13:42:12.777Z,34
2019-06-01T13:43:19.728Z,33.7
2019-06-01T13:44:26.695Z,33.6
2019-06-01T13:45:33.909Z,33.4
2019-06-01T13:46:41.134Z,33.5
2019-06-01T13:47:48.227Z,33.7
2019-06-01T13:48:57.871Z,34
2019-06-01T13:50:07.441Z,34.4
2019-06-01T13:51:14.672Z,34.9
2019-06-01T13:52:21.644Z,35.2
2019-06-01T13:53:28.859Z,35.3
2019-06-01T13:54:39.410Z,35.2
2019-06-01T13:55:47.068Z,35
2019-06-01T13:56:55.668Z,34.9
2019-06-01T13:58:02.894Z,34.4
2019-06-01T13:59:10.112Z,33.6
2019-06-01T14:00:30.928Z,33.8
2019-06-01T14:01:38.229Z,34.2
2019-06-01T14:02:53.760Z,34.3
2019-06-01T14:04:04.251Z,34.2
2019-06-01T14:05:11.469Z,33.4
2019-06-01T14:06:18.698Z,33.2
2019-06-01T14:07:25.924Z,33.5
2019-06-01T14:08:32.871Z,33.7
2019-06-01T14:09:40.094Z,33.7
2019-06-01T14:10:47.651Z,33.4
2019-06-01T14:11:56.085Z,33.4
2019-06-01T14:13:05.846Z,33.3
2019-06-01T14:14:13.066Z,33.4
2019-06-01T14:15:20.284Z,33.4
2019-06-01T14:16:27.513Z,33.4
2019-06-01T14:17:34.733Z,33.6
2019-06-01T14:18:41.959Z,33.6
2019-06-01T14:19:50.152Z,33.7
2019-06-01T14:20:58.512Z,33.8
2019-06-01T14:22:05.735Z,33.8
2019-06-01T14:23:12.957Z,33.9
2019-06-01T14:24:19.903Z,34.2
2019-06-01T14:25:26.850Z,34.3
2019-06-01T14:26:34.088Z,34.7
2019-06-01T14:27:41.314Z,35.1
2019-06-01T14:28:50.084Z,35
2019-06-01T14:29:58.400Z,35
2019-06-01T14:31:05.677Z,34.7
2019-06-01T14:32:12.911Z,34.9
2019-06-01T14:33:20.136Z,34.8
2019-06-01T14:34:27.361Z,34.8
2019-06-01T14:35:36.429Z,34.7
2019-06-01T14:36:43.656Z,34.4
2019-06-01T14:37:53.291Z,34.2
2019-06-01T14:39:03.309Z,34.3
2019-06-01T14:40:10.535Z,33.8
2019-06-01T14:41:17.831Z,33.2
2019-06-01T14:42:25.047Z,33.3
2019-06-01T14:43:32.267Z,33.5
2019-06-01T14:44:39.486Z,33.9
2019-06-01T14:45:47.884Z,34.2
2019-06-01T14:47:06.184Z,34.4
2019-06-01T14:48:13.500Z,34.5
2019-06-01T14:49:20.444Z,34.2
2019-06-01T14:50:27.117Z,34.2
2019-06-01T14:51:34.343Z,34.7
2019-06-01T14:52:41.569Z,34.9
2019-06-01T14:53:49.508Z,34.7
2019-06-01T14:54:58.543Z,34.5
2019-06-01T14:56:05.535Z,34.5
2019-06-01T14:57:12.527Z,34.7
2019-06-01T14:58:19.213Z,34.8
2019-06-01T14:59:26.438Z,34.8
2019-06-01T15:00:33.673Z,34.8
2019-06-01T15:01:40.903Z,35.2
2019-06-01T15:02:49.933Z,35.2
2019-06-01T15:03:58.889Z,35.4
2019-06-01T15:05:06.163Z,35.4
2019-06-01T15:06:13.380Z,35.4
2019-06-01T15:07:20.329Z,35.2
2019-06-01T15:08:27.556Z,35.3
2019-06-01T15:09:34.792Z,34.7
2019-06-01T15:10:42.022Z,34.1